sensor_id;sensor_type;location;lat;lon;timestamp;P1;durP1;ratioP1;P2;durP2;ratioP2
1879;SDS011;49285;49.002;8.390;2023-07-09T00:00:47;9.53;;;7.33;;
1879;SDS011;49285;49.002;8.390;2023-07-09T00:03:13;7.80;;;7.00;;
1879;SDS011;49285;49.002;8.390;2023-07-09T00:05:40;15.97;;;8.37;;
1879;SDS011;49285;49.002;8.390;2023-07-09T00:08:07;9.23;;;7.30;;
1879;SDS011;49285;49.002;8.390;2023-07-09T00:10:52;10.80;;;7.80;;
1879;SDS011;49285;49.002;8.390;2023-07-09T00:13:18;12.10;;;7.30;;
1879;SDS011;49285;49.002;8.390;2023-07-09T00:15:45;10.90;;;7.50;;
1879;SDS011;49285;49.002;8.390;2023-07-09T00:18:11;8.10;;;7.07;;
1879;SDS011;49285;49.002;8.390;2023-07-09T00:20:36;7.23;;;6.03;;
1879;SDS011;49285;49.002;8.390;2023-07-09T00:23:02;7.27;;;6.10;;
1879;SDS011;49285;49.002;8.390;2023-07-09T00:25:29;10.33;;;6.20;;
1879;SDS011;49285;49.002;8.390;2023-07-09T00:27:55;14.13;;;6.80;;
1879;SDS011;49285;49.002;8.390;2023-07-09T00:30:22;9.53;;;6.90;;
1879;SDS011;49285;49.002;8.390;2023-07-09T00:32:51;11.17;;;6.23;;
1879;SDS011;49285;49.002;8.390;2023-07-09T00:35:18;9.97;;;6.97;;
1879;SDS011;49285;49.002;8.390;2023-07-09T00:37:44;9.30;;;7.00;;
1879;SDS011;49285;49.002;8.390;2023-07-09T00:40:15;6.93;;;6.20;;
1879;SDS011;49285;49.002;8.390;2023-07-09T00:42:44;9.87;;;6.00;;
1879;SDS011;49285;49.002;8.390;2023-07-09T00:45:18;8.47;;;6.23;;
1879;SDS011;49285;49.002;8.390;2023-07-09T00:47:53;14.83;;;6.93;;
1879;SDS011;49285;49.002;8.390;2023-07-09T00:51:07;9.03;;;6.47;;
1879;SDS011;49285;49.002;8.390;2023-07-09T00:53:17;7.37;;;6.63;;
1879;SDS011;49285;49.002;8.390;2023-07-09T00:55:44;10.40;;;7.20;;
1879;SDS011;49285;49.002;8.390;2023-07-09T00:58:21;7.90;;;6.47;;
1879;SDS011;49285;49.002;8.390;2023-07-09T01:00:52;9.17;;;6.50;;
1879;SDS011;49285;49.002;8.390;2023-07-09T01:05:47;8.90;;;6.40;;
1879;SDS011;49285;49.002;8.390;2023-07-09T01:08:17;7.83;;;7.03;;
1879;SDS011;49285;49.002;8.390;2023-07-09T01:10:44;11.30;;;7.70;;
1879;SDS011;49285;49.002;8.390;2023-07-09T01:13:10;11.97;;;7.17;;
1879;SDS011;49285;49.002;8.390;2023-07-09T01:15:36;7.73;;;6.93;;
1879;SDS011;49285;49.002;8.390;2023-07-09T01:18:03;16.40;;;7.40;;
1879;SDS011;49285;49.002;8.390;2023-07-09T01:20:29;7.30;;;6.57;;
1879;SDS011;49285;49.002;8.390;2023-07-09T01:22:55;7.63;;;6.87;;
1879;SDS011;49285;49.002;8.390;2023-07-09T01:25:22;7.63;;;6.93;;
1879;SDS011;49285;49.002;8.390;2023-07-09T01:27:49;9.87;;;6.60;;
1879;SDS011;49285;49.002;8.390;2023-07-09T01:30:24;7.30;;;6.30;;
1879;SDS011;49285;49.002;8.390;2023-07-09T01:32:56;6.90;;;6.20;;
1879;SDS011;49285;49.002;8.390;2023-07-09T01:35:22;9.20;;;7.00;;
1879;SDS011;49285;49.002;8.390;2023-07-09T01:37:49;6.13;;;5.50;;
1879;SDS011;49285;49.002;8.390;2023-07-09T01:40:16;8.40;;;6.70;;
1879;SDS011;49285;49.002;8.390;2023-07-09T01:42:44;10.43;;;5.33;;
1879;SDS011;49285;49.002;8.390;2023-07-09T01:45:10;8.07;;;6.83;;
1879;SDS011;49285;49.002;8.390;2023-07-09T01:47:36;7.43;;;6.70;;
1879;SDS011;49285;49.002;8.390;2023-07-09T01:50:03;9.07;;;6.73;;
1879;SDS011;49285;49.002;8.390;2023-07-09T01:52:31;12.20;;;6.17;;
1879;SDS011;49285;49.002;8.390;2023-07-09T01:54:58;9.63;;;6.43;;
1879;SDS011;49285;49.002;8.390;2023-07-09T01:57:25;8.60;;;7.00;;
1879;SDS011;49285;49.002;8.390;2023-07-09T01:59:58;8.57;;;6.70;;
1879;SDS011;49285;49.002;8.390;2023-07-09T02:02:24;12.63;;;6.30;;
1879;SDS011;49285;49.002;8.390;2023-07-09T02:04:51;8.63;;;6.77;;
1879;SDS011;49285;49.002;8.390;2023-07-09T02:07:19;6.90;;;6.03;;
1879;SDS011;49285;49.002;8.390;2023-07-09T02:09:46;11.10;;;6.07;;
1879;SDS011;49285;49.002;8.390;2023-07-09T02:12:12;8.43;;;6.40;;
1879;SDS011;49285;49.002;8.390;2023-07-09T02:14:39;9.47;;;6.13;;
1879;SDS011;49285;49.002;8.390;2023-07-09T02:17:06;8.23;;;6.90;;
1879;SDS011;49285;49.002;8.390;2023-07-09T02:19:32;6.83;;;6.13;;
1879;SDS011;49285;49.002;8.390;2023-07-09T02:21:58;7.40;;;6.10;;
1879;SDS011;49285;49.002;8.390;2023-07-09T02:24:23;7.03;;;5.10;;
1879;SDS011;49285;49.002;8.390;2023-07-09T02:26:53;12.80;;;6.03;;
1879;SDS011;49285;49.002;8.390;2023-07-09T02:29:19;8.90;;;6.40;;
1879;SDS011;49285;49.002;8.390;2023-07-09T02:31:45;7.50;;;6.50;;
1879;SDS011;49285;49.002;8.390;2023-07-09T02:34:13;7.93;;;7.13;;
1879;SDS011;49285;49.002;8.390;2023-07-09T02:36:38;7.60;;;6.80;;
1879;SDS011;49285;49.002;8.390;2023-07-09T02:39:07;7.80;;;6.60;;
1879;SDS011;49285;49.002;8.390;2023-07-09T02:41:37;9.53;;;7.10;;
1879;SDS011;49285;49.002;8.390;2023-07-09T02:44:06;8.57;;;7.10;;
1879;SDS011;49285;49.002;8.390;2023-07-09T02:46:32;7.30;;;6.60;;
1879;SDS011;49285;49.002;8.390;2023-07-09T02:48:58;10.00;;;7.27;;
1879;SDS011;49285;49.002;8.390;2023-07-09T02:51:24;10.83;;;6.20;;
1879;SDS011;49285;49.002;8.390;2023-07-09T02:53:51;10.83;;;7.33;;
1879;SDS011;49285;49.002;8.390;2023-07-09T02:56:21;10.70;;;7.97;;
1879;SDS011;49285;49.002;8.390;2023-07-09T02:58:47;8.97;;;6.43;;
1879;SDS011;49285;49.002;8.390;2023-07-09T03:01:13;7.43;;;6.60;;
1879;SDS011;49285;49.002;8.390;2023-07-09T03:03:39;7.67;;;6.97;;
1879;SDS011;49285;49.002;8.390;2023-07-09T03:06:05;7.67;;;6.93;;
1879;SDS011;49285;49.002;8.390;2023-07-09T03:08:30;6.77;;;6.17;;
1879;SDS011;49285;49.002;8.390;2023-07-09T03:10:56;9.30;;;7.27;;
1879;SDS011;49285;49.002;8.390;2023-07-09T03:13:22;8.27;;;7.43;;
1879;SDS011;49285;49.002;8.390;2023-07-09T03:15:57;8.47;;;6.83;;
1879;SDS011;49285;49.002;8.390;2023-07-09T03:18:23;8.93;;;6.93;;
1879;SDS011;49285;49.002;8.390;2023-07-09T03:20:49;9.67;;;7.00;;
1879;SDS011;49285;49.002;8.390;2023-07-09T03:23:14;12.27;;;7.90;;
1879;SDS011;49285;49.002;8.390;2023-07-09T03:25:40;8.93;;;7.63;;
1879;SDS011;49285;49.002;8.390;2023-07-09T03:28:07;9.53;;;7.33;;
1879;SDS011;49285;49.002;8.390;2023-07-09T03:30:32;11.83;;;7.07;;
1879;SDS011;49285;49.002;8.390;2023-07-09T03:32:58;9.47;;;6.63;;
1879;SDS011;49285;49.002;8.390;2023-07-09T03:35:25;10.47;;;7.27;;
1879;SDS011;49285;49.002;8.390;2023-07-09T03:37:51;7.73;;;6.90;;
1879;SDS011;49285;49.002;8.390;2023-07-09T03:40:20;7.27;;;6.23;;
1879;SDS011;49285;49.002;8.390;2023-07-09T03:42:46;9.13;;;7.23;;
1879;SDS011;49285;49.002;8.390;2023-07-09T03:45:12;7.80;;;6.47;;
1879;SDS011;49285;49.002;8.390;2023-07-09T03:47:38;8.03;;;6.60;;
1879;SDS011;49285;49.002;8.390;2023-07-09T03:50:04;11.80;;;6.70;;
1879;SDS011;49285;49.002;8.390;2023-07-09T03:52:33;8.23;;;7.40;;
1879;SDS011;49285;49.002;8.390;2023-07-09T03:54:59;8.47;;;7.57;;
1879;SDS011;49285;49.002;8.390;2023-07-09T03:57:26;8.90;;;6.50;;
1879;SDS011;49285;49.002;8.390;2023-07-09T03:59:52;8.20;;;7.40;;
1879;SDS011;49285;49.002;8.390;2023-07-09T04:02:17;12.40;;;7.53;;
1879;SDS011;49285;49.002;8.390;2023-07-09T04:04:43;9.43;;;7.30;;
1879;SDS011;49285;49.002;8.390;2023-07-09T04:07:09;12.10;;;7.57;;
1879;SDS011;49285;49.002;8.390;2023-07-09T04:09:34;7.90;;;7.10;;
1879;SDS011;49285;49.002;8.390;2023-07-09T04:12:00;9.97;;;7.40;;
1879;SDS011;49285;49.002;8.390;2023-07-09T04:14:26;9.17;;;7.47;;
1879;SDS011;49285;49.002;8.390;2023-07-09T04:16:52;9.93;;;7.73;;
1879;SDS011;49285;49.002;8.390;2023-07-09T04:19:18;10.40;;;7.10;;
1879;SDS011;49285;49.002;8.390;2023-07-09T04:21:43;8.70;;;6.90;;
1879;SDS011;49285;49.002;8.390;2023-07-09T04:24:09;9.27;;;7.63;;
1879;SDS011;49285;49.002;8.390;2023-07-09T04:26:34;9.30;;;7.20;;
1879;SDS011;49285;49.002;8.390;2023-07-09T04:29:00;9.03;;;7.97;;
1879;SDS011;49285;49.002;8.390;2023-07-09T04:31:26;12.77;;;7.80;;
1879;SDS011;49285;49.002;8.390;2023-07-09T04:33:51;8.77;;;6.60;;
1879;SDS011;49285;49.002;8.390;2023-07-09T04:36:20;13.23;;;7.87;;
1879;SDS011;49285;49.002;8.390;2023-07-09T04:38:46;8.90;;;7.70;;
1879;SDS011;49285;49.002;8.390;2023-07-09T04:41:11;8.03;;;7.23;;
1879;SDS011;49285;49.002;8.390;2023-07-09T04:43:37;11.70;;;8.10;;
1879;SDS011;49285;49.002;8.390;2023-07-09T04:46:02;11.13;;;7.93;;
1879;SDS011;49285;49.002;8.390;2023-07-09T04:48:28;11.20;;;8.90;;
1879;SDS011;49285;49.002;8.390;2023-07-09T04:50:53;8.30;;;7.23;;
1879;SDS011;49285;49.002;8.390;2023-07-09T04:53:19;7.90;;;7.10;;
1879;SDS011;49285;49.002;8.390;2023-07-09T04:55:45;6.53;;;5.93;;
1879;SDS011;49285;49.002;8.390;2023-07-09T04:58:11;9.90;;;5.73;;
1879;SDS011;49285;49.002;8.390;2023-07-09T05:00:36;12.33;;;6.67;;
1879;SDS011;49285;49.002;8.390;2023-07-09T05:03:02;10.57;;;7.17;;
1879;SDS011;49285;49.002;8.390;2023-07-09T05:05:27;8.83;;;6.53;;
1879;SDS011;49285;49.002;8.390;2023-07-09T05:07:53;10.53;;;7.07;;
1879;SDS011;49285;49.002;8.390;2023-07-09T05:10:18;13.77;;;7.90;;
1879;SDS011;49285;49.002;8.390;2023-07-09T05:12:48;10.20;;;6.90;;
1879;SDS011;49285;49.002;8.390;2023-07-09T05:15:18;7.53;;;6.30;;
1879;SDS011;49285;49.002;8.390;2023-07-09T05:17:45;8.50;;;6.50;;
1879;SDS011;49285;49.002;8.390;2023-07-09T05:20:11;7.20;;;6.50;;
1879;SDS011;49285;49.002;8.390;2023-07-09T05:22:38;7.20;;;6.50;;
1879;SDS011;49285;49.002;8.390;2023-07-09T05:25:04;9.23;;;6.90;;
1879;SDS011;49285;49.002;8.390;2023-07-09T05:27:30;6.60;;;5.73;;
1879;SDS011;49285;49.002;8.390;2023-07-09T05:29:55;10.07;;;6.07;;
1879;SDS011;49285;49.002;8.390;2023-07-09T05:32:21;6.80;;;6.10;;
1879;SDS011;49285;49.002;8.390;2023-07-09T05:34:46;7.87;;;6.03;;
1879;SDS011;49285;49.002;8.390;2023-07-09T05:37:12;6.13;;;5.50;;
1879;SDS011;49285;49.002;8.390;2023-07-09T05:39:37;7.93;;;6.13;;
1879;SDS011;49285;49.002;8.390;2023-07-09T05:42:03;6.90;;;6.13;;
1879;SDS011;49285;49.002;8.390;2023-07-09T05:44:29;6.73;;;6.03;;
1879;SDS011;49285;49.002;8.390;2023-07-09T05:46:54;7.77;;;6.20;;
1879;SDS011;49285;49.002;8.390;2023-07-09T05:49:20;8.60;;;6.23;;
1879;SDS011;49285;49.002;8.390;2023-07-09T05:51:45;7.90;;;6.30;;
1879;SDS011;49285;49.002;8.390;2023-07-09T05:54:11;7.77;;;5.57;;
1879;SDS011;49285;49.002;8.390;2023-07-09T05:56:37;7.93;;;6.87;;
1879;SDS011;49285;49.002;8.390;2023-07-09T05:59:02;10.33;;;6.57;;
1879;SDS011;49285;49.002;8.390;2023-07-09T06:01:29;8.70;;;6.00;;
1879;SDS011;49285;49.002;8.390;2023-07-09T06:03:54;8.30;;;6.90;;
1879;SDS011;49285;49.002;8.390;2023-07-09T06:06:21;8.13;;;6.67;;
1879;SDS011;49285;49.002;8.390;2023-07-09T06:08:47;6.60;;;5.90;;
1879;SDS011;49285;49.002;8.390;2023-07-09T06:11:12;9.20;;;6.70;;
1879;SDS011;49285;49.002;8.390;2023-07-09T06:13:38;7.93;;;6.00;;
1879;SDS011;49285;49.002;8.390;2023-07-09T06:16:04;9.53;;;5.90;;
1879;SDS011;49285;49.002;8.390;2023-07-09T06:18:30;9.93;;;6.03;;
1879;SDS011;49285;49.002;8.390;2023-07-09T06:20:56;9.97;;;6.37;;
1879;SDS011;49285;49.002;8.390;2023-07-09T06:23:24;6.40;;;5.80;;
1879;SDS011;49285;49.002;8.390;2023-07-09T06:25:50;10.63;;;6.80;;
1879;SDS011;49285;49.002;8.390;2023-07-09T06:28:19;7.80;;;5.90;;
1879;SDS011;49285;49.002;8.390;2023-07-09T06:30:46;6.80;;;6.20;;
1879;SDS011;49285;49.002;8.390;2023-07-09T06:33:13;7.77;;;6.73;;
1879;SDS011;49285;49.002;8.390;2023-07-09T06:35:45;14.00;;;11.23;;
1879;SDS011;49285;49.002;8.390;2023-07-09T06:38:12;9.63;;;6.97;;
1879;SDS011;49285;49.002;8.390;2023-07-09T06:40:38;8.07;;;6.53;;
1879;SDS011;49285;49.002;8.390;2023-07-09T06:43:04;7.00;;;6.30;;
1879;SDS011;49285;49.002;8.390;2023-07-09T06:45:29;7.90;;;6.13;;
1879;SDS011;49285;49.002;8.390;2023-07-09T06:47:56;8.23;;;7.13;;
1879;SDS011;49285;49.002;8.390;2023-07-09T06:50:22;8.33;;;6.97;;
1879;SDS011;49285;49.002;8.390;2023-07-09T06:52:48;9.97;;;7.53;;
1879;SDS011;49285;49.002;8.390;2023-07-09T06:55:13;8.60;;;7.50;;
1879;SDS011;49285;49.002;8.390;2023-07-09T06:57:39;7.10;;;6.40;;
1879;SDS011;49285;49.002;8.390;2023-07-09T07:00:04;10.00;;;7.40;;
1879;SDS011;49285;49.002;8.390;2023-07-09T07:02:31;12.63;;;9.70;;
1879;SDS011;49285;49.002;8.390;2023-07-09T07:04:57;8.57;;;6.77;;
1879;SDS011;49285;49.002;8.390;2023-07-09T07:07:22;8.10;;;6.63;;
1879;SDS011;49285;49.002;8.390;2023-07-09T07:09:48;8.63;;;5.97;;
1879;SDS011;49285;49.002;8.390;2023-07-09T07:12:23;8.70;;;6.30;;
1879;SDS011;49285;49.002;8.390;2023-07-09T07:14:51;9.50;;;6.37;;
1879;SDS011;49285;49.002;8.390;2023-07-09T07:17:16;6.87;;;5.93;;
1879;SDS011;49285;49.002;8.390;2023-07-09T07:19:42;7.33;;;6.27;;
1879;SDS011;49285;49.002;8.390;2023-07-09T07:22:08;7.53;;;6.73;;
1879;SDS011;49285;49.002;8.390;2023-07-09T07:24:34;9.87;;;7.10;;
1879;SDS011;49285;49.002;8.390;2023-07-09T07:26:59;8.80;;;6.37;;
1879;SDS011;49285;49.002;8.390;2023-07-09T07:29:25;9.20;;;6.67;;
1879;SDS011;49285;49.002;8.390;2023-07-09T07:31:50;10.70;;;6.10;;
1879;SDS011;49285;49.002;8.390;2023-07-09T07:34:16;10.80;;;6.30;;
1879;SDS011;49285;49.002;8.390;2023-07-09T07:36:42;8.73;;;7.00;;
1879;SDS011;49285;49.002;8.390;2023-07-09T07:39:07;7.87;;;6.30;;
1879;SDS011;49285;49.002;8.390;2023-07-09T07:41:33;7.40;;;6.70;;
1879;SDS011;49285;49.002;8.390;2023-07-09T07:43:59;7.73;;;6.90;;
1879;SDS011;49285;49.002;8.390;2023-07-09T07:46:24;9.80;;;8.40;;
1879;SDS011;49285;49.002;8.390;2023-07-09T07:48:50;8.90;;;6.63;;
1879;SDS011;49285;49.002;8.390;2023-07-09T07:51:15;8.63;;;7.10;;
1879;SDS011;49285;49.002;8.390;2023-07-09T07:53:41;6.83;;;6.13;;
1879;SDS011;49285;49.002;8.390;2023-07-09T07:56:07;8.50;;;6.30;;
1879;SDS011;49285;49.002;8.390;2023-07-09T07:58:33;7.73;;;7.00;;
1879;SDS011;49285;49.002;8.390;2023-07-09T08:00:59;8.40;;;6.57;;
1879;SDS011;49285;49.002;8.390;2023-07-09T08:03:25;10.17;;;9.17;;
1879;SDS011;49285;49.002;8.390;2023-07-09T08:05:51;7.93;;;5.43;;
1879;SDS011;49285;49.002;8.390;2023-07-09T08:08:17;8.40;;;5.50;;
1879;SDS011;49285;49.002;8.390;2023-07-09T08:10:43;7.27;;;5.90;;
1879;SDS011;49285;49.002;8.390;2023-07-09T08:13:08;6.87;;;5.80;;
1879;SDS011;49285;49.002;8.390;2023-07-09T08:15:34;9.27;;;8.30;;
1879;SDS011;49285;49.002;8.390;2023-07-09T08:18:00;9.53;;;8.20;;
1879;SDS011;49285;49.002;8.390;2023-07-09T08:20:26;7.93;;;6.60;;
1879;SDS011;49285;49.002;8.390;2023-07-09T08:22:51;7.30;;;6.60;;
1879;SDS011;49285;49.002;8.390;2023-07-09T08:25:17;8.20;;;5.53;;
1879;SDS011;49285;49.002;8.390;2023-07-09T08:27:43;8.87;;;5.83;;
1879;SDS011;49285;49.002;8.390;2023-07-09T08:30:08;9.30;;;5.20;;
1879;SDS011;49285;49.002;8.390;2023-07-09T08:32:34;7.10;;;5.67;;
1879;SDS011;49285;49.002;8.390;2023-07-09T08:35:00;7.33;;;5.87;;
1879;SDS011;49285;49.002;8.390;2023-07-09T08:37:25;6.00;;;5.50;;
1879;SDS011;49285;49.002;8.390;2023-07-09T08:39:51;6.37;;;5.63;;
1879;SDS011;49285;49.002;8.390;2023-07-09T08:42:20;7.83;;;7.03;;
1879;SDS011;49285;49.002;8.390;2023-07-09T08:50:34;9.30;;;5.80;;
1879;SDS011;49285;49.002;8.390;2023-07-09T08:53:03;6.67;;;6.07;;
1879;SDS011;49285;49.002;8.390;2023-07-09T08:55:35;7.37;;;5.40;;
1879;SDS011;49285;49.002;8.390;2023-07-09T08:58:16;8.97;;;5.60;;
1879;SDS011;49285;49.002;8.390;2023-07-09T09:00:58;6.57;;;5.40;;
1879;SDS011;49285;49.002;8.390;2023-07-09T09:03:42;11.57;;;7.03;;
1879;SDS011;49285;49.002;8.390;2023-07-09T09:06:21;6.70;;;6.03;;
1879;SDS011;49285;49.002;8.390;2023-07-09T09:11:44;6.87;;;5.60;;
1879;SDS011;49285;49.002;8.390;2023-07-09T09:16:49;9.40;;;5.10;;
1879;SDS011;49285;49.002;8.390;2023-07-09T09:19:23;9.33;;;8.20;;
1879;SDS011;49285;49.002;8.390;2023-07-09T09:22:03;7.10;;;5.67;;
1879;SDS011;49285;49.002;8.390;2023-07-09T09:24:54;6.37;;;5.63;;
1879;SDS011;49285;49.002;8.390;2023-07-09T09:27:20;9.50;;;7.20;;
1879;SDS011;49285;49.002;8.390;2023-07-09T09:29:46;8.93;;;5.50;;
1879;SDS011;49285;49.002;8.390;2023-07-09T09:32:16;7.13;;;6.43;;
1879;SDS011;49285;49.002;8.390;2023-07-09T09:34:49;9.23;;;5.60;;
1879;SDS011;49285;49.002;8.390;2023-07-09T09:37:21;7.17;;;5.70;;
1879;SDS011;49285;49.002;8.390;2023-07-09T09:39:50;7.30;;;5.80;;
1879;SDS011;49285;49.002;8.390;2023-07-09T09:42:16;7.47;;;5.47;;
1879;SDS011;49285;49.002;8.390;2023-07-09T09:44:44;8.33;;;5.30;;
1879;SDS011;49285;49.002;8.390;2023-07-09T09:47:11;7.00;;;5.73;;
1879;SDS011;49285;49.002;8.390;2023-07-09T09:49:41;8.60;;;6.23;;
1879;SDS011;49285;49.002;8.390;2023-07-09T09:52:16;5.60;;;5.10;;
1879;SDS011;49285;49.002;8.390;2023-07-09T09:54:53;8.53;;;5.77;;
1879;SDS011;49285;49.002;8.390;2023-07-09T09:57:22;6.13;;;5.30;;
1879;SDS011;49285;49.002;8.390;2023-07-09T09:59:49;8.23;;;7.47;;
1879;SDS011;49285;49.002;8.390;2023-07-09T10:02:19;10.33;;;9.30;;
1879;SDS011;49285;49.002;8.390;2023-07-09T10:04:47;8.07;;;5.20;;
1879;SDS011;49285;49.002;8.390;2023-07-09T10:07:23;7.57;;;5.97;;
1879;SDS011;49285;49.002;8.390;2023-07-09T10:09:54;9.03;;;7.03;;
1879;SDS011;49285;49.002;8.390;2023-07-09T10:12:28;6.00;;;5.50;;
1879;SDS011;49285;49.002;8.390;2023-07-09T10:15:22;7.20;;;5.40;;
1879;SDS011;49285;49.002;8.390;2023-07-09T10:20:48;6.43;;;5.80;;
1879;SDS011;49285;49.002;8.390;2023-07-09T10:31:58;9.03;;;5.87;;
1879;SDS011;49285;49.002;8.390;2023-07-09T10:34:42;6.27;;;5.67;;
1879;SDS011;49285;49.002;8.390;2023-07-09T10:37:27;7.57;;;6.77;;
1879;SDS011;49285;49.002;8.390;2023-07-09T10:40:14;6.60;;;5.90;;
1879;SDS011;49285;49.002;8.390;2023-07-09T10:42:48;6.90;;;5.00;;
1879;SDS011;49285;49.002;8.390;2023-07-09T10:45:20;7.00;;;5.43;;
1879;SDS011;49285;49.002;8.390;2023-07-09T10:47:54;5.63;;;5.13;;
1879;SDS011;49285;49.002;8.390;2023-07-09T10:50:29;6.57;;;5.40;;
1879;SDS011;49285;49.002;8.390;2023-07-09T10:53:02;11.10;;;9.57;;
1879;SDS011;49285;49.002;8.390;2023-07-09T10:56:10;6.40;;;5.80;;
1879;SDS011;49285;49.002;8.390;2023-07-09T11:00:53;6.00;;;5.10;;
1879;SDS011;49285;49.002;8.390;2023-07-09T11:03:20;5.30;;;4.80;;
1879;SDS011;49285;49.002;8.390;2023-07-09T11:05:54;5.30;;;4.80;;
1879;SDS011;49285;49.002;8.390;2023-07-09T11:08:32;6.10;;;5.50;;
1879;SDS011;49285;49.002;8.390;2023-07-09T11:11:05;7.97;;;5.30;;
1879;SDS011;49285;49.002;8.390;2023-07-09T11:13:47;9.47;;;6.50;;
1879;SDS011;49285;49.002;8.390;2023-07-09T11:16:28;5.80;;;5.20;;
1879;SDS011;49285;49.002;8.390;2023-07-09T11:19:01;5.90;;;4.83;;
1879;SDS011;49285;49.002;8.390;2023-07-09T11:21:28;6.73;;;5.63;;
1879;SDS011;49285;49.002;8.390;2023-07-09T11:23:55;6.00;;;5.10;;
1879;SDS011;49285;49.002;8.390;2023-07-09T11:26:33;5.57;;;4.97;;
1879;SDS011;49285;49.002;8.390;2023-07-09T11:31:36;6.57;;;4.67;;
1879;SDS011;49285;49.002;8.390;2023-07-09T11:36:45;5.70;;;5.10;;
1879;SDS011;49285;49.002;8.390;2023-07-09T11:41:57;8.23;;;5.63;;
1879;SDS011;49285;49.002;8.390;2023-07-09T11:44:30;6.80;;;4.83;;
1879;SDS011;49285;49.002;8.390;2023-07-09T11:49:34;8.97;;;5.07;;
1879;SDS011;49285;49.002;8.390;2023-07-09T11:52:04;10.77;;;9.73;;
1879;SDS011;49285;49.002;8.390;2023-07-09T11:54:34;7.30;;;5.13;;
1879;SDS011;49285;49.002;8.390;2023-07-09T11:57:01;5.80;;;4.97;;
1879;SDS011;49285;49.002;8.390;2023-07-09T11:59:28;5.20;;;4.60;;
1879;SDS011;49285;49.002;8.390;2023-07-09T12:01:53;8.40;;;5.33;;
1879;SDS011;49285;49.002;8.390;2023-07-09T12:04:22;6.80;;;4.63;;
1879;SDS011;49285;49.002;8.390;2023-07-09T12:06:53;8.73;;;5.10;;
1879;SDS011;49285;49.002;8.390;2023-07-09T12:09:24;5.57;;;4.63;;
1879;SDS011;49285;49.002;8.390;2023-07-09T12:11:57;5.20;;;4.23;;
1879;SDS011;49285;49.002;8.390;2023-07-09T12:14:23;6.20;;;4.23;;
1879;SDS011;49285;49.002;8.390;2023-07-09T12:16:50;6.90;;;4.87;;
1879;SDS011;49285;49.002;8.390;2023-07-09T12:19:18;5.03;;;4.53;;
1879;SDS011;49285;49.002;8.390;2023-07-09T12:21:46;5.13;;;4.63;;
1879;SDS011;49285;49.002;8.390;2023-07-09T12:24:20;4.80;;;4.40;;
1879;SDS011;49285;49.002;8.390;2023-07-09T12:26:51;5.90;;;5.40;;
1879;SDS011;49285;49.002;8.390;2023-07-09T12:29:18;5.50;;;5.00;;
1879;SDS011;49285;49.002;8.390;2023-07-09T12:31:44;6.40;;;4.53;;
1879;SDS011;49285;49.002;8.390;2023-07-09T12:34:12;5.63;;;4.50;;
1879;SDS011;49285;49.002;8.390;2023-07-09T12:36:40;5.90;;;4.30;;
1879;SDS011;49285;49.002;8.390;2023-07-09T12:39:09;4.97;;;4.57;;
1879;SDS011;49285;49.002;8.390;2023-07-09T12:41:38;6.47;;;4.80;;
1879;SDS011;49285;49.002;8.390;2023-07-09T12:44:13;5.40;;;4.57;;
1879;SDS011;49285;49.002;8.390;2023-07-09T12:46:44;5.80;;;4.77;;
1879;SDS011;49285;49.002;8.390;2023-07-09T12:49:30;4.93;;;4.30;;
1879;SDS011;49285;49.002;8.390;2023-07-09T12:52:03;4.90;;;4.50;;
1879;SDS011;49285;49.002;8.390;2023-07-09T12:54:38;5.20;;;4.77;;
1879;SDS011;49285;49.002;8.390;2023-07-09T12:57:08;8.73;;;5.40;;
1879;SDS011;49285;49.002;8.390;2023-07-09T12:59:40;5.80;;;4.63;;
1879;SDS011;49285;49.002;8.390;2023-07-09T13:02:11;5.53;;;4.37;;
1879;SDS011;49285;49.002;8.390;2023-07-09T13:04:41;4.87;;;4.47;;
1879;SDS011;49285;49.002;8.390;2023-07-09T13:09:48;8.40;;;4.53;;
1879;SDS011;49285;49.002;8.390;2023-07-09T13:12:15;5.37;;;4.87;;
1879;SDS011;49285;49.002;8.390;2023-07-09T13:14:41;5.60;;;5.07;;
1879;SDS011;49285;49.002;8.390;2023-07-09T13:17:08;4.70;;;4.30;;
1879;SDS011;49285;49.002;8.390;2023-07-09T13:19:34;5.70;;;4.40;;
1879;SDS011;49285;49.002;8.390;2023-07-09T13:22:00;6.10;;;4.73;;
1879;SDS011;49285;49.002;8.390;2023-07-09T13:24:28;5.70;;;4.80;;
1879;SDS011;49285;49.002;8.390;2023-07-09T13:26:55;4.97;;;4.40;;
1879;SDS011;49285;49.002;8.390;2023-07-09T13:29:24;4.53;;;4.10;;
1879;SDS011;49285;49.002;8.390;2023-07-09T13:31:51;5.30;;;4.77;;
1879;SDS011;49285;49.002;8.390;2023-07-09T13:34:26;10.37;;;7.63;;
1879;SDS011;49285;49.002;8.390;2023-07-09T13:36:53;4.60;;;4.17;;
1879;SDS011;49285;49.002;8.390;2023-07-09T13:39:21;5.70;;;4.77;;
1879;SDS011;49285;49.002;8.390;2023-07-09T13:41:48;5.63;;;4.87;;
1879;SDS011;49285;49.002;8.390;2023-07-09T13:44:19;5.70;;;4.90;;
1879;SDS011;49285;49.002;8.390;2023-07-09T13:46:47;6.70;;;4.77;;
1879;SDS011;49285;49.002;8.390;2023-07-09T13:49:14;5.00;;;4.60;;
1879;SDS011;49285;49.002;8.390;2023-07-09T13:51:46;5.67;;;4.80;;
1879;SDS011;49285;49.002;8.390;2023-07-09T13:54:15;5.60;;;4.87;;
1879;SDS011;49285;49.002;8.390;2023-07-09T13:56:46;7.03;;;4.60;;
1879;SDS011;49285;49.002;8.390;2023-07-09T13:59:16;5.67;;;5.07;;
1879;SDS011;49285;49.002;8.390;2023-07-09T14:01:49;5.27;;;4.73;;
1879;SDS011;49285;49.002;8.390;2023-07-09T14:04:17;5.63;;;4.80;;
1879;SDS011;49285;49.002;8.390;2023-07-09T14:06:44;4.93;;;4.47;;
1879;SDS011;49285;49.002;8.390;2023-07-09T14:09:11;6.20;;;5.50;;
1879;SDS011;49285;49.002;8.390;2023-07-09T14:11:41;6.67;;;5.10;;
1879;SDS011;49285;49.002;8.390;2023-07-09T14:16:47;5.50;;;5.00;;
1879;SDS011;49285;49.002;8.390;2023-07-09T14:19:15;5.50;;;4.40;;
1879;SDS011;49285;49.002;8.390;2023-07-09T14:21:42;5.83;;;4.80;;
1879;SDS011;49285;49.002;8.390;2023-07-09T14:24:18;5.87;;;4.80;;
1879;SDS011;49285;49.002;8.390;2023-07-09T14:26:52;5.30;;;4.83;;
1879;SDS011;49285;49.002;8.390;2023-07-09T14:29:20;6.40;;;5.00;;
1879;SDS011;49285;49.002;8.390;2023-07-09T14:31:49;4.87;;;4.33;;
1879;SDS011;49285;49.002;8.390;2023-07-09T14:34:26;6.03;;;4.47;;
1879;SDS011;49285;49.002;8.390;2023-07-09T14:36:54;6.20;;;5.17;;
1879;SDS011;49285;49.002;8.390;2023-07-09T14:39:21;7.90;;;4.37;;
1879;SDS011;49285;49.002;8.390;2023-07-09T14:41:48;6.10;;;5.23;;
1879;SDS011;49285;49.002;8.390;2023-07-09T14:44:21;5.47;;;4.80;;
1879;SDS011;49285;49.002;8.390;2023-07-09T14:46:53;5.20;;;4.70;;
1879;SDS011;49285;49.002;8.390;2023-07-09T14:49:20;6.33;;;5.40;;
1879;SDS011;49285;49.002;8.390;2023-07-09T14:51:46;5.33;;;4.83;;
1879;SDS011;49285;49.002;8.390;2023-07-09T14:54:23;5.17;;;4.67;;
1879;SDS011;49285;49.002;8.390;2023-07-09T14:56:50;9.50;;;4.77;;
1879;SDS011;49285;49.002;8.390;2023-07-09T14:59:17;5.40;;;4.37;;
1879;SDS011;49285;49.002;8.390;2023-07-09T15:01:43;5.00;;;4.50;;
1879;SDS011;49285;49.002;8.390;2023-07-09T15:04:25;6.07;;;4.80;;
1879;SDS011;49285;49.002;8.390;2023-07-09T15:06:55;5.70;;;5.03;;
1879;SDS011;49285;49.002;8.390;2023-07-09T15:09:25;5.27;;;4.77;;
1879;SDS011;49285;49.002;8.390;2023-07-09T15:11:53;5.53;;;5.03;;
1879;SDS011;49285;49.002;8.390;2023-07-09T15:14:23;7.43;;;5.20;;
1879;SDS011;49285;49.002;8.390;2023-07-09T15:16:50;5.47;;;4.97;;
1879;SDS011;49285;49.002;8.390;2023-07-09T15:19:18;6.40;;;4.90;;
1879;SDS011;49285;49.002;8.390;2023-07-09T15:21:45;7.63;;;4.67;;
1879;SDS011;49285;49.002;8.390;2023-07-09T15:24:18;6.43;;;5.07;;
1879;SDS011;49285;49.002;8.390;2023-07-09T15:26:51;7.97;;;5.00;;
1879;SDS011;49285;49.002;8.390;2023-07-09T15:29:18;10.13;;;5.20;;
1879;SDS011;49285;49.002;8.390;2023-07-09T15:31:44;5.47;;;4.97;;
1879;SDS011;49285;49.002;8.390;2023-07-09T15:34:10;5.37;;;4.80;;
1879;SDS011;49285;49.002;8.390;2023-07-09T15:36:35;6.43;;;5.10;;
1879;SDS011;49285;49.002;8.390;2023-07-09T15:39:01;10.57;;;5.80;;
1879;SDS011;49285;49.002;8.390;2023-07-09T15:41:27;8.17;;;5.10;;
1879;SDS011;49285;49.002;8.390;2023-07-09T15:43:53;6.40;;;5.10;;
1879;SDS011;49285;49.002;8.390;2023-07-09T15:46:19;5.50;;;4.97;;
1879;SDS011;49285;49.002;8.390;2023-07-09T15:48:46;4.93;;;4.40;;
1879;SDS011;49285;49.002;8.390;2023-07-09T15:51:12;5.03;;;4.53;;